Time;durP1;ratioP1;P1;durP2;ratioP2;P2;SDS_P1;SDS_P2;PMS_P1;PMS_P2;Temp;Humidity;BMP_temperature;BMP_pressure;BME280_temperature;BME280_humidity;BME280_pressure;Samples;Min_cycle;Max_cycle;Signal;HPM_P1;HPM_P2
2021/03/23 00:00:39;;;;;;;0.70;0.60;;;6.00;99.90;;;6.86;100.00;-20868.97;5017045;28;20947;-68
2021/03/23 00:03:10;;;;;;;0.70;0.60;;;6.00;99.90;;;6.83;100.00;-20868.00;5033515;28;20501;-68
2021/03/23 00:05:39;;;;;;;0.70;0.60;;;6.00;99.90;;;6.82;100.00;-20867.84;5033270;28;20527;-70
2021/03/23 00:08:21;;;;;;;0.80;0.70;;;5.90;99.90;;;6.78;100.00;-20866.88;5013881;28;20428;-68
2021/03/23 00:10:48;;;;;;;0.70;0.63;;;5.90;99.90;;;6.75;100.00;-20866.03;5015844;28;20472;-69
2021/03/23 00:13:35;;;;;;;0.70;0.50;;;5.90;99.90;;;6.72;100.00;-20865.22;5029832;28;20432;-68
2021/03/23 00:16:03;;;;;;;0.70;0.60;;;5.90;99.90;;;6.71;100.00;-20864.78;5033692;28;20483;-67
2021/03/23 00:18:30;;;;;;;0.70;0.60;;;5.80;99.90;;;6.68;100.00;-20863.97;5032837;28;20491;-68
2021/03/23 00:20:57;;;;;;;0.70;0.57;;;5.80;99.90;;;6.67;100.00;-20863.81;5013643;28;20446;-70
2021/03/23 00:23:24;;;;;;;0.70;0.60;;;5.80;99.90;;;6.67;100.00;-20863.81;5032226;28;20853;-68
2021/03/23 00:25:52;;;;;;;0.70;0.50;;;5.80;99.90;;;6.68;100.00;-20864.09;5032934;28;20805;-69
2021/03/23 00:28:23;;;;;;;0.70;0.60;;;5.80;99.90;;;6.70;100.00;-20864.66;5030890;28;20486;-68
2021/03/23 00:30:53;;;;;;;0.70;0.50;;;5.90;99.90;;;6.71;100.00;-20864.78;5032037;28;20475;-68
2021/03/23 00:57:26;;;;;;;0.70;0.60;;;5.80;99.90;;;6.66;100.00;-20863.53;5015418;28;20536;-69
2021/03/23 00:59:53;;;;;;;0.70;0.60;;;5.80;99.90;;;6.69;100.00;-20864.38;5031074;28;20443;-70
2021/03/23 01:02:21;;;;;;;0.70;0.60;;;5.80;99.90;;;6.71;100.00;-20864.94;5032646;28;20458;-70
2021/03/23 01:04:48;;;;;;;1.27;1.17;;;5.90;99.90;;;6.73;100.00;-20865.50;5032605;28;20498;-70
2021/03/23 01:07:16;;;;;;;0.70;0.50;;;5.90;99.90;;;6.75;100.00;-20865.91;5042260;28;20811;-70
2021/03/23 01:09:43;;;;;;;0.70;0.60;;;5.90;99.90;;;6.70;100.00;-20864.66;5032626;28;20463;-70
2021/03/23 01:12:11;;;;;;;0.70;0.50;;;5.90;99.90;;;6.73;100.00;-20865.34;5031824;28;21045;-71
2021/03/23 01:14:40;;;;;;;0.70;0.60;;;5.90;99.90;;;6.73;100.00;-20865.34;5033196;28;20441;-69
2021/03/23 01:17:08;;;;;;;0.70;0.60;;;5.80;99.90;;;6.71;100.00;-20864.94;5032789;28;20427;-69
2021/03/23 01:19:37;;;;;;;0.70;0.60;;;5.80;99.90;;;6.70;100.00;-20864.50;5032058;28;20468;-68
2021/03/23 01:22:05;;;;;;;0.73;0.67;;;5.80;99.90;;;6.68;100.00;-20863.97;5031610;28;20474;-68
2021/03/23 01:24:35;;;;;;;0.70;0.60;;;5.80;99.90;;;6.68;100.00;-20863.97;5032822;28;20925;-67
2021/03/23 01:27:03;;;;;;;0.70;0.60;;;5.80;99.90;;;6.67;100.00;-20863.81;5032493;28;20462;-68
2021/03/23 01:29:31;;;;;;;0.70;0.50;;;5.80;99.90;;;6.69;100.00;-20864.38;5029133;28;20456;-67
2021/03/23 01:32:00;;;;;;;0.70;0.60;;;5.80;99.90;;;6.69;100.00;-20864.38;5033565;28;20453;-68
2021/03/23 01:34:45;;;;;;;0.70;0.60;;;5.80;99.90;;;6.64;100.00;-20863.00;5035194;28;20797;-68
2021/03/23 01:37:13;;;;;;;0.70;0.60;;;5.80;99.90;;;6.62;100.00;-20862.28;5035121;28;20454;-68
2021/03/23 01:39:42;;;;;;;0.70;0.57;;;5.70;99.90;;;6.61;100.00;-20862.16;5036212;28;20913;-69
2021/03/23 01:42:12;;;;;;;0.70;0.60;;;5.70;99.90;;;6.58;100.00;-20861.19;5035325;28;21008;-69
2021/03/23 01:44:41;;;;;;;1.13;1.03;;;5.70;99.90;;;6.61;100.00;-20862.16;5036384;28;20566;-68
2021/03/23 01:47:10;;;;;;;0.70;0.50;;;5.70;99.90;;;6.60;100.00;-20861.88;5034856;28;20456;-68
2021/03/23 01:49:42;;;;;;;0.70;0.50;;;5.70;99.90;;;6.62;100.00;-20766.00;5050396;28;20459;-68
2021/03/23 01:52:14;;;;;;;0.70;0.60;;;5.70;99.90;;;6.63;100.00;-20504.97;5035696;28;20990;-68
2021/03/23 01:54:54;;;;;;;0.70;0.60;;;5.80;99.90;;;6.61;100.00;-20048.94;5035022;28;20527;-68
2021/03/23 01:57:22;;;;;;;0.70;0.57;;;5.80;99.90;;;6.61;100.00;-19379.31;5035478;28;20448;-70
2021/03/23 01:59:55;;;;;;;0.70;0.50;;;5.80;99.90;;;6.66;100.00;-19283.34;5051653;28;20972;-70
2021/03/23 02:02:28;;;;;;;0.70;0.60;;;5.80;99.90;;;6.73;100.00;-19479.47;5039289;28;20465;-69
2021/03/23 02:05:27;;;;;;;0.70;0.60;;;5.80;99.90;;;6.77;100.00;-19440.63;5034649;28;20917;-70
2021/03/23 02:07:57;;;;;;;0.70;0.60;;;5.80;99.90;;;6.75;100.00;-19674.19;5035284;28;20800;-70
2021/03/23 02:10:27;;;;;;;0.70;0.60;;;5.90;99.90;;;6.71;100.00;-19476.47;5034416;28;20558;-70
2021/03/23 02:12:56;;;;;;;0.70;0.60;;;5.90;99.90;;;6.82;100.00;-19389.47;5034299;28;20622;-70
2021/03/23 02:15:26;;;;;;;0.70;0.60;;;5.90;99.90;;;6.75;100.00;-19554.53;5067793;28;20468;-69
2021/03/23 02:18:15;;;;;;;0.70;0.70;;;5.90;99.90;;;6.74;100.00;-19258.09;5034043;28;20478;-70
2021/03/23 02:21:07;;;;;;;0.70;0.60;;;5.90;99.90;;;6.70;100.00;-19095.22;5034508;28;20766;-71
2021/03/23 02:23:38;;;;;;;0.70;0.50;;;5.80;99.90;;;6.70;100.00;-18756.53;5035760;28;20781;-70
2021/03/23 02:26:10;;;;;;;0.70;0.50;;;5.80;99.90;;;6.66;100.00;-18994.63;5035590;28;20801;-70
2021/03/23 02:28:51;;;;;;;0.70;0.60;;;5.80;99.90;;;6.62;100.00;-18306.34;5021358;28;20926;-70
2021/03/23 02:31:29;;;;;;;1.03;0.90;;;5.80;99.90;;;6.61;100.00;-17369.56;5066026;28;20471;-70
2021/03/23 02:34:03;;;;;;;0.70;0.60;;;5.80;99.90;;;6.58;100.00;-17329.03;5033681;28;20581;-70
2021/03/23 02:36:33;;;;;;;1.00;1.00;;;5.80;99.90;;;6.55;100.00;-17144.03;5027930;28;20465;-70
2021/03/23 02:39:01;;;;;;;4.73;1.60;;;5.70;99.90;;;6.53;100.00;-16859.63;5028913;28;20506;-70
2021/03/23 02:41:29;;;;;;;0.70;0.60;;;5.70;99.90;;;6.49;100.00;-16300.84;5033806;28;20500;-70
2021/03/23 02:43:58;;;;;;;0.70;0.60;;;5.70;99.90;;;6.49;100.00;-15633.03;5034571;28;20435;-70
2021/03/23 02:46:25;;;;;;;0.70;0.60;;;5.60;99.90;;;6.47;100.00;-15084.38;5050320;28;20436;-70
2021/03/23 02:48:53;;;;;;;1.37;0.80;;;5.60;99.90;;;6.50;100.00;-14810.75;5032048;28;20477;-68
2021/03/23 02:51:20;;;;;;;0.70;0.50;;;5.70;99.90;;;6.49;100.00;-14735.78;5034727;28;20476;-68
2021/03/23 02:53:49;;;;;;;0.70;0.60;;;5.60;99.90;;;6.53;100.00;-15234.94;5033852;28;20487;-68
2021/03/23 02:56:17;;;;;;;0.70;0.60;;;5.70;99.90;;;6.61;100.00;-16353.00;5034764;28;20448;-68
2021/03/23 02:58:45;;;;;;;0.70;0.60;;;5.70;99.90;;;6.59;100.00;-16955.56;5027986;28;20460;-68
2021/03/23 03:01:13;;;;;;;0.70;0.60;;;5.70;99.90;;;6.54;100.00;-17019.28;5033946;28;20480;-69
2021/03/23 03:03:41;;;;;;;0.70;0.60;;;5.70;99.90;;;6.61;100.00;-16866.19;5033574;28;20445;-68
2021/03/23 03:06:09;;;;;;;0.70;0.57;;;5.70;99.90;;;6.76;100.00;-17801.31;5032919;28;20499;-70
2021/03/23 03:08:37;;;;;;;0.70;0.70;;;5.80;99.90;;;6.78;100.00;-19816.78;5033244;28;20468;-70
2021/03/23 03:11:07;;;;;;;0.70;0.60;;;5.80;99.90;;;6.64;100.00;-20176.69;5036633;28;20521;-70
2021/03/23 03:13:35;;;;;;;0.70;0.60;;;5.80;99.90;;;6.58;100.00;-19515.47;5050068;28;20431;-68
2021/03/23 03:16:04;;;;;;;0.70;0.60;;;5.80;99.90;;;6.69;100.00;-19722.44;5024749;28;20433;-68
2021/03/23 03:18:31;;;;;;;3.23;2.10;;;5.80;99.90;;;6.66;100.00;-20687.31;5033977;28;20517;-70
2021/03/23 03:21:01;;;;;;;0.70;0.60;;;5.80;99.90;;;6.74;100.00;-20865.78;5045442;28;20454;-70
2021/03/23 03:23:29;;;;;;;0.70;0.60;;;5.80;99.90;;;6.72;100.00;-20865.06;5023625;28;20433;-69
2021/03/23 03:26:02;;;;;;;0.70;0.60;;;5.80;99.90;;;6.72;100.00;-20865.06;5049134;28;20435;-70
2021/03/23 03:28:29;;;;;;;0.70;0.60;;;5.80;99.90;;;6.69;100.00;-20864.38;5033701;28;20429;-69
2021/03/23 03:30:58;;;;;;;0.70;0.60;;;5.80;99.90;;;6.69;100.00;-20864.25;5034176;28;20495;-67
2021/03/23 03:33:25;;;;;;;0.70;0.60;;;5.70;99.90;;;6.60;100.00;-20861.88;5032823;28;20453;-70
2021/03/23 03:35:57;;;;;;;0.70;0.60;;;5.70;99.90;;;6.66;100.00;-20863.41;5032851;28;21027;-70
2021/03/23 03:38:27;;;;;;;0.70;0.60;;;5.70;99.90;;;6.62;100.00;-20862.44;5034197;28;20429;-70
2021/03/23 03:40:56;;;;;;;0.70;0.60;;;5.70;99.90;;;6.67;100.00;-20863.81;5032318;28;20451;-70
2021/03/23 03:43:27;;;;;;;0.80;0.73;;;5.70;99.90;;;6.69;100.00;-20864.38;5033022;28;20480;-69
2021/03/23 03:45:55;;;;;;;0.70;0.50;;;5.80;99.90;;;6.59;100.00;-20861.59;5033245;28;20792;-70
2021/03/23 03:48:23;;;;;;;0.70;0.60;;;5.80;99.90;;;6.65;100.00;-20863.25;5032256;28;20523;-70
2021/03/23 03:50:50;;;;;;;0.70;0.60;;;5.70;99.90;;;6.68;100.00;-20863.97;5063295;28;20507;-68
2021/03/23 03:53:20;;;;;;;0.70;0.50;;;5.80;99.90;;;6.68;100.00;-20864.09;5066550;28;20466;-68
2021/03/23 03:55:48;;;;;;;0.70;0.60;;;5.80;99.90;;;6.62;100.00;-20862.44;5031798;28;20433;-70
2021/03/23 03:58:16;;;;;;;0.70;0.60;;;5.70;99.90;;;6.57;100.00;-20861.03;5033518;28;20465;-68
2021/03/23 04:00:43;;;;;;;0.70;0.60;;;5.70;99.90;;;6.47;100.00;-20858.25;5029549;28;20473;-70
2021/03/23 04:03:15;;;;;;;0.70;0.60;;;5.60;99.90;;;6.48;100.00;-20858.53;5033988;28;20459;-68
2021/03/23 04:05:45;;;;;;;0.70;0.60;;;5.60;99.90;;;6.46;100.00;-20858.13;5032870;28;20419;-68
2021/03/23 04:08:15;;;;;;;2.10;0.80;;;5.70;99.90;;;6.55;100.00;-20860.47;5032637;28;20562;-70
2021/03/23 04:10:42;;;;;;;0.70;0.60;;;5.70;99.90;;;6.55;100.00;-20860.47;5022099;28;20526;-69
2021/03/23 04:13:10;;;;;;;0.70;0.50;;;5.70;99.90;;;6.45;100.00;-20857.84;5033708;28;20437;-69
2021/03/23 04:15:40;;;;;;;0.70;0.60;;;5.60;99.90;;;6.37;100.00;-20855.63;5033606;28;20425;-68
2021/03/23 04:18:09;;;;;;;0.70;0.60;;;5.60;99.90;;;6.32;100.00;-20854.09;5031812;28;20999;-68
2021/03/23 04:20:39;;;;;;;0.70;0.60;;;5.60;99.90;;;6.32;100.00;-20854.09;5032527;28;20924;-68
2021/03/23 04:23:10;;;;;;;1.37;1.27;;;5.60;99.90;;;6.34;100.00;-20636.38;5029055;28;20433;-68
2021/03/23 04:25:36;;;;;;;0.60;0.60;;;5.60;99.90;;;6.34;100.00;-20738.50;5014142;28;20440;-67
2021/03/23 04:28:05;;;;;;;0.70;0.50;;;5.60;99.90;;;6.33;100.00;-20854.50;5033430;28;20464;-70
2021/03/23 04:30:32;;;;;;;0.70;0.50;;;5.60;99.90;;;6.38;100.00;-20855.91;5030121;28;20448;-70
2021/03/23 04:32:59;;;;;;;1.27;1.17;;;5.60;99.90;;;6.40;100.00;-20856.47;5031832;28;20452;-67
2021/03/23 04:35:40;;;;;;;0.70;0.60;;;5.70;99.90;;;6.52;100.00;-20859.66;5031642;28;20951;-70
2021/03/23 04:38:08;;;;;;;0.70;0.60;;;5.70;99.90;;;6.44;100.00;-20857.44;5028879;28;20477;-70
2021/03/23 04:40:35;;;;;;;0.70;0.50;;;5.70;99.90;;;6.46;100.00;-20858.13;5017205;28;20494;-70
2021/03/23 04:43:05;;;;;;;0.70;0.50;;;5.70;99.90;;;6.47;100.00;-20858.25;5023878;28;20437;-69
2021/03/23 04:45:32;;;;;;;0.70;0.57;;;5.70;99.90;;;6.58;100.00;-20861.19;5029613;28;20479;-70
2021/03/23 04:48:00;;;;;;;0.67;0.50;;;5.80;99.90;;;6.67;100.00;-20863.81;5029083;28;20458;-70
2021/03/23 04:50:27;;;;;;;0.70;0.60;;;5.80;99.90;;;6.66;100.00;-20863.53;5035954;28;20438;-70
2021/03/23 04:52:55;;;;;;;0.70;0.60;;;5.80;99.90;;;6.66;100.00;-20863.41;5036016;28;20478;-70
2021/03/23 04:55:22;;;;;;;1.07;0.97;;;5.80;99.90;;;6.63;100.00;-20862.72;5034548;28;20494;-68
2021/03/23 04:57:51;;;;;;;0.70;0.60;;;5.80;99.90;;;6.62;100.00;-20862.28;5031733;28;20436;-68
2021/03/23 05:00:19;;;;;;;0.70;0.60;;;5.80;99.90;;;6.62;100.00;-20862.28;5033017;28;20443;-68
2021/03/23 05:02:47;;;;;;;0.70;0.57;;;5.80;99.90;;;6.62;100.00;-20862.44;5037329;28;20469;-68
2021/03/23 05:05:14;;;;;;;0.70;0.50;;;5.80;99.90;;;6.74;100.00;-20865.63;5025075;28;20779;-69
2021/03/23 05:07:41;;;;;;;0.70;0.60;;;5.80;99.90;;;6.72;100.00;-20865.22;5077006;28;20868;-68
2021/03/23 05:10:12;;;;;;;0.70;0.60;;;5.80;99.90;;;6.84;100.00;-20868.28;5052144;28;20443;-70
2021/03/23 05:12:39;;;;;;;0.70;0.60;;;5.90;99.90;;;6.80;100.00;-20867.16;5035850;28;20551;-67
2021/03/23 05:15:09;;;;;;;0.70;0.60;;;5.90;99.90;;;6.67;100.00;-20863.81;5038752;28;20539;-68
2021/03/23 05:17:38;;;;;;;1.87;1.77;;;5.80;99.90;;;6.69;100.00;-20864.25;5050594;28;20540;-68
2021/03/23 05:20:08;;;;;;;1.27;1.17;;;5.80;99.90;;;6.62;100.00;-20862.28;5034173;28;20483;-68
2021/03/23 05:22:38;;;;;;;0.70;0.70;;;5.80;99.90;;;6.71;100.00;-20864.94;5037324;28;20417;-68
2021/03/23 05:25:06;;;;;;;0.70;0.60;;;5.80;99.90;;;6.63;100.00;-20862.72;5036769;28;20951;-68
2021/03/23 05:27:34;;;;;;;0.70;0.60;;;5.80;99.90;;;6.52;100.00;-20859.78;5035411;28;20437;-68
2021/03/23 05:30:03;;;;;;;0.70;0.60;;;5.80;99.90;;;6.57;100.00;-20861.03;5036173;28;20546;-69
2021/03/23 05:32:30;;;;;;;0.70;0.60;;;5.80;99.90;;;6.64;100.00;-20863.00;5036706;28;20467;-68
2021/03/23 05:34:57;;;;;;;1.10;1.00;;;5.90;99.90;;;6.71;100.00;-20864.78;5034418;28;20455;-68
2021/03/23 05:37:44;;;;;;;0.70;0.60;;;5.90;99.90;;;6.70;100.00;-20864.66;5037270;28;20424;-68
2021/03/23 05:40:21;;;;;;;0.70;0.60;;;5.90;99.90;;;6.76;100.00;-20866.31;5018640;28;20432;-69
2021/03/23 05:43:04;;;;;;;0.70;0.60;;;5.80;99.90;;;6.73;100.00;-20865.50;5036618;28;20484;-68
2021/03/23 05:45:38;;;;;;;0.70;0.60;;;5.80;99.90;;;6.69;100.00;-20864.25;5036508;28;20416;-69
2021/03/23 05:48:20;;;;;;;0.70;0.60;;;5.80;99.90;;;6.67;100.00;-20863.81;5035324;28;21011;-68
2021/03/23 05:51:01;;;;;;;0.70;0.60;;;5.80;99.90;;;6.65;100.00;-20863.25;5036068;28;20827;-68
2021/03/23 05:53:51;;;;;;;0.70;0.60;;;5.80;99.90;;;6.64;100.00;-20862.84;5035096;28;20425;-68
2021/03/23 05:56:20;;;;;;;0.70;0.50;;;5.70;99.90;;;6.66;100.00;-20863.53;5035148;28;20921;-68
2021/03/23 05:58:51;;;;;;;0.70;0.50;;;5.70;99.90;;;6.70;100.00;-20864.50;5025140;28;20439;-69
2021/03/23 06:01:25;;;;;;;0.70;0.60;;;5.80;99.90;;;6.73;100.00;-20865.50;5024119;28;20959;-68
2021/03/23 06:04:00;;;;;;;0.70;0.60;;;5.80;99.90;;;6.84;100.00;-20868.28;5036350;28;20831;-70
2021/03/23 06:06:40;;;;;;;0.70;0.60;;;5.80;99.90;;;6.99;100.00;-20872.56;5035742;28;20924;-67
2021/03/23 06:09:11;;;;;;;0.70;0.60;;;5.90;99.90;;;6.86;100.00;-20868.81;5036164;28;20543;-68
2021/03/23 06:11:56;;;;;;;1.93;1.73;;;5.90;99.90;;;6.85;100.00;-20868.53;5035805;28;20596;-70
2021/03/23 06:14:39;;;;;;;0.70;0.60;;;5.90;99.90;;;6.88;100.00;-20869.38;5035995;28;20509;-69
2021/03/23 06:17:22;;;;;;;0.90;0.90;;;5.90;99.90;;;7.03;100.00;-20873.53;5034441;28;20756;-70
2021/03/23 06:20:00;;;;;;;0.70;0.50;;;6.00;99.90;;;6.88;100.00;-20869.38;5034843;28;20448;-70
2021/03/23 06:22:37;;;;;;;0.70;0.60;;;6.00;99.90;;;7.12;100.00;-20875.91;5034577;28;20947;-70
2021/03/23 06:25:24;;;;;;;0.80;0.77;;;6.10;99.90;;;7.04;100.00;-20873.81;5035479;28;20524;-70
2021/03/23 06:27:55;;;;;;;0.70;0.60;;;6.10;99.90;;;6.99;100.00;-20872.44;5067989;28;20552;-70
2021/03/23 06:30:49;;;;;;;0.70;0.50;;;6.10;99.90;;;7.12;100.00;-20876.06;5033321;28;20466;-68
2021/03/23 06:33:20;;;;;;;0.70;0.60;;;6.20;99.90;;;6.98;100.00;-20872.16;5033595;28;20467;-69
2021/03/23 06:35:55;;;;;;;0.70;0.50;;;6.20;99.90;;;7.11;100.00;-20875.78;5035261;28;20714;-68
2021/03/23 06:38:36;;;;;;;0.70;0.60;;;6.30;99.90;;;7.29;100.00;-20880.50;5033384;28;20452;-67
2021/03/23 06:41:18;;;;;;;0.70;0.60;;;6.30;99.90;;;7.20;100.00;-20878.13;5022494;28;20432;-68
2021/03/23 06:43:48;;;;;;;0.70;0.60;;;6.30;99.90;;;7.33;100.00;-20881.75;5033820;28;20862;-68
2021/03/23 06:46:27;;;;;;;0.70;0.70;;;6.40;99.90;;;7.63;100.00;-20889.94;5035221;28;20416;-68
2021/03/23 06:49:25;;;;;;;0.70;0.50;;;6.40;99.90;;;7.26;100.00;-20879.94;5035017;28;20479;-68
2021/03/23 06:52:21;;;;;;;0.70;0.60;;;6.50;99.90;;;7.25;100.00;-20879.66;5034191;28;20975;-68
2021/03/23 06:55:23;;;;;;;0.73;0.70;;;6.50;99.90;;;7.42;100.00;-20884.09;5034930;28;20470;-68
2021/03/23 06:57:51;;;;;;;0.70;0.60;;;6.50;99.90;;;7.60;100.00;-20888.97;5033081;28;20452;-68
2021/03/23 07:00:25;;;;;;;0.70;0.60;;;6.60;99.90;;;7.51;100.00;-20886.59;5020600;28;20442;-70
2021/03/23 07:03:14;;;;;;;0.70;0.60;;;6.60;99.90;;;7.80;100.00;-20894.38;5015000;28;20414;-69
2021/03/23 07:05:43;;;;;;;0.70;0.67;;;6.60;99.90;;;7.74;100.00;-20893.00;5014744;28;20416;-68
2021/03/23 07:08:23;;;;;;;0.80;0.80;;;6.70;99.90;;;7.67;100.00;-20891.03;5015095;28;20906;-68
2021/03/23 07:11:06;;;;;;;0.90;0.80;;;6.70;99.90;;;7.94;100.00;-20898.41;5013837;28;20445;-68
2021/03/23 07:13:39;;;;;;;0.70;0.60;;;6.80;99.90;;;8.16;100.00;-20904.22;5031972;28;20436;-68
2021/03/23 07:16:28;;;;;;;0.70;0.50;;;6.90;99.90;;;8.36;100.00;-20909.63;5034760;28;20411;-69
2021/03/23 07:19:10;;;;;;;0.70;0.60;;;6.90;99.90;;;8.51;100.00;-20913.81;5033145;28;20460;-68
2021/03/23 07:21:48;;;;;;;0.70;0.60;;;6.90;99.90;;;8.30;100.00;-20907.97;5034468;28;20417;-68
2021/03/23 07:24:18;;;;;;;0.70;0.60;;;7.00;99.90;;;8.15;100.00;-20904.09;5034440;28;20924;-68
2021/03/23 07:26:58;;;;;;;0.70;0.60;;;7.00;99.90;;;8.23;100.00;-20906.31;5034629;28;20491;-68
2021/03/23 07:29:32;;;;;;;0.70;0.60;;;7.10;99.90;;;8.20;100.00;-20905.47;5031735;28;20440;-70
2021/03/23 07:32:20;;;;;;;0.70;0.70;;;7.10;99.90;;;8.37;100.00;-20910.06;5023138;28;20468;-70
2021/03/23 07:35:05;;;;;;;1.00;0.90;;;7.20;99.90;;;8.77;100.00;-20920.75;5032064;28;20460;-70
2021/03/23 07:37:45;;;;;;;0.70;0.57;;;7.30;99.90;;;8.58;100.00;-20915.75;5033894;28;20434;-69
2021/03/23 07:40:27;;;;;;;0.73;0.60;;;7.30;99.90;;;8.54;100.00;-20914.63;5034073;28;20472;-68
2021/03/23 07:43:21;;;;;;;1.30;1.20;;;7.30;99.90;;;8.70;100.00;-20919.06;5034071;28;20516;-69
2021/03/23 07:45:58;;;;;;;0.70;0.60;;;7.50;99.90;;;8.38;100.00;-20910.19;5035076;28;20476;-69
2021/03/23 07:48:42;;;;;;;2.30;1.00;;;7.50;99.90;;;8.58;100.00;-20915.75;5034686;28;20446;-68
2021/03/23 07:51:28;;;;;;;0.70;0.60;;;7.40;99.90;;;8.56;100.00;-20915.19;5033571;28;20507;-68
2021/03/23 07:54:23;;;;;;;2.80;1.67;;;7.50;99.90;;;8.54;100.00;-20914.50;5034123;28;20420;-69
2021/03/23 07:57:14;;;;;;;0.70;0.60;;;7.50;99.90;;;9.15;100.00;-20931.13;5034307;28;20411;-69
2021/03/23 08:00:19;;;;;;;0.70;0.60;;;7.50;99.90;;;9.35;100.00;-20936.69;5032546;28;20434;-69
2021/03/23 08:03:10;;;;;;;0.70;0.60;;;7.60;99.90;;;9.29;100.00;-20934.88;5032782;28;20477;-69
2021/03/23 08:05:47;;;;;;;0.70;0.60;;;7.70;99.90;;;8.77;100.00;-20920.75;5032259;28;20479;-69
2021/03/23 08:08:36;;;;;;;0.70;0.60;;;7.80;99.90;;;8.57;100.00;-20915.31;5033078;28;20418;-69
2021/03/23 08:11:19;;;;;;;0.70;0.50;;;7.60;99.90;;;8.63;100.00;-20917.00;5032286;28;20433;-68
2021/03/23 08:14:10;;;;;;;0.70;0.60;;;7.60;99.90;;;9.04;100.00;-20928.09;5033742;28;20795;-69
2021/03/23 08:16:56;;;;;;;0.70;0.53;;;7.60;99.90;;;8.64;100.00;-20917.28;5034041;28;20415;-69
2021/03/23 08:19:50;;;;;;;0.70;0.60;;;7.60;99.90;;;8.47;100.00;-20912.69;5033267;28;20449;-69
2021/03/23 08:23:03;;;;;;;0.70;0.60;;;7.70;99.90;;;9.01;100.00;-20927.38;5033402;28;20766;-69
2021/03/23 08:25:47;;;;;;;0.70;0.60;;;7.70;99.90;;;9.39;100.00;-20937.78;5033341;28;20501;-69
2021/03/23 08:28:38;;;;;;;0.70;0.60;;;7.80;99.90;;;9.02;100.00;-20927.66;5043541;28;20823;-69
2021/03/23 08:32:05;;;;;;;0.70;0.60;;;7.90;99.90;;;9.38;100.00;-20937.38;5033000;28;20860;-69
2021/03/23 08:35:17;;;;;;;0.70;0.70;;;8.00;99.90;;;9.14;100.00;-20930.84;5024661;28;20482;-70
2021/03/23 08:38:07;;;;;;;0.80;0.80;;;8.10;99.90;;;9.68;100.00;-20945.53;5004222;28;20433;-69
2021/03/23 08:40:45;;;;;;;0.80;0.77;;;8.20;99.90;;;10.09;100.00;-20956.75;5013188;28;20422;-69
2021/03/23 08:43:17;;;;;;;1.47;0.87;;;8.20;99.90;;;9.85;100.00;-20950.09;5027975;28;20435;-69
2021/03/23 08:45:49;;;;;;;0.70;0.60;;;8.40;99.90;;;9.95;100.00;-20952.88;5033281;28;20420;-69
2021/03/23 08:48:35;;;;;;;1.20;0.90;;;8.50;99.90;;;10.51;100.00;-20967.97;5031851;28;20435;-69
2021/03/23 08:51:11;;;;;;;0.70;0.60;;;8.60;99.90;;;10.35;100.00;-20963.81;5032718;28;20942;-69
2021/03/23 08:53:46;;;;;;;2.90;2.70;;;8.60;99.90;;;10.85;100.00;-20977.22;5033166;28;20893;-70
2021/03/23 08:56:14;;;;;;;0.70;0.60;;;8.70;99.90;;;10.58;100.00;-20970.03;5033103;28;20411;-69
2021/03/23 08:58:52;;;;;;;0.70;0.60;;;8.80;99.90;;;10.00;100.00;-20954.13;5031529;28;20445;-69
2021/03/23 09:01:40;;;;;;;0.70;0.60;;;8.80;99.90;;;10.22;100.00;-20960.22;5033077;28;20409;-69
2021/03/23 09:04:33;;;;;;;0.80;0.80;;;8.90;99.90;;;11.05;100.00;-20982.75;5033060;28;20449;-70
2021/03/23 09:07:04;;;;;;;0.70;0.60;;;8.80;99.90;;;10.81;100.00;-20976.25;5026998;28;20468;-69
2021/03/23 09:09:40;;;;;;;0.70;0.70;;;8.80;99.90;;;11.16;100.00;-20985.53;5032255;28;20409;-70
2021/03/23 09:12:33;;;;;;;0.70;0.60;;;8.80;99.90;;;11.30;100.00;-20989.41;5032873;28;20492;-70
2021/03/23 09:15:25;;;;;;;0.70;0.60;;;9.00;99.90;;;11.13;100.00;-20984.84;5048568;28;20467;-70
2021/03/23 09:18:00;;;;;;;0.70;0.60;;;9.00;99.90;;;10.70;100.00;-20973.09;5032808;28;20425;-70
2021/03/23 09:20:58;;;;;;;0.73;0.70;;;9.10;99.90;;;11.52;100.00;-20995.47;5032509;28;20474;-70
2021/03/23 09:23:51;;;;;;;0.70;0.63;;;9.20;99.90;;;11.70;100.00;-21000.16;5032613;28;20416;-70
2021/03/23 09:26:51;;;;;;;0.70;0.60;;;9.30;99.90;;;11.84;100.00;-21004.19;5032656;28;20446;-70
2021/03/23 09:29:45;;;;;;;0.70;0.70;;;9.70;99.90;;;11.69;100.00;-21000.03;5013034;28;20421;-69
2021/03/23 09:32:19;;;;;;;0.70;0.70;;;9.80;99.90;;;11.24;100.00;-20987.75;5024818;28;20464;-70
2021/03/23 09:35:15;;;;;;;0.73;0.67;;;9.90;99.90;;;11.65;100.00;-20998.94;5032399;28;20460;-70
2021/03/23 09:37:53;;;;;;;1.10;1.00;;;9.70;99.90;;;11.88;100.00;-21005.16;5032927;28;20831;-70
2021/03/23 09:40:55;;;;;;;0.70;0.70;;;9.60;99.90;;;12.30;100.00;-21016.47;5034160;28;20427;-70
2021/03/23 09:43:35;;;;;;;1.30;1.20;;;10.10;99.90;;;11.84;100.00;-21004.03;5026945;28;20471;-70
2021/03/23 09:46:35;;;;;;;0.70;0.60;;;10.10;99.90;;;12.65;100.00;-21025.84;5031778;28;20924;-70
2021/03/23 09:49:17;;;;;;;1.30;1.20;;;10.10;99.90;;;12.36;100.00;-21018.13;5032782;28;20445;-69
2021/03/23 09:51:49;;;;;;;1.10;1.00;;;10.30;99.60;;;11.89;100.00;-21005.44;5045326;28;20474;-69
2021/03/23 09:54:25;;;;;;;0.93;0.93;;;10.30;99.90;;;12.39;100.00;-21018.97;5036157;28;20424;-70
2021/03/23 09:56:54;;;;;;;0.80;0.70;;;10.30;99.10;;;12.90;100.00;-21032.63;5033695;28;20424;-70
2021/03/23 09:59:26;;;;;;;0.70;0.60;;;10.30;98.80;;;12.80;100.00;-21030.13;5036355;28;20878;-70
2021/03/23 10:02:02;;;;;;;0.70;0.60;;;10.50;98.50;;;12.33;100.00;-21017.28;5035191;28;20430;-70
2021/03/23 10:04:38;;;;;;;0.70;0.70;;;10.90;98.60;;;12.98;100.00;-21034.97;5035080;28;20445;-70
2021/03/23 10:07:08;;;;;;;0.70;0.60;;;11.10;96.50;;;14.37;100.00;-21072.31;5035790;28;20416;-70
2021/03/23 10:09:37;;;;;;;0.80;0.70;;;11.20;94.50;;;13.42;100.00;-21046.81;5035189;28;20467;-70
2021/03/23 10:12:06;;;;;;;0.70;0.70;;;11.20;94.60;;;14.12;100.00;-21065.56;5068028;28;20528;-70
2021/03/23 10:14:38;;;;;;;0.70;0.70;;;11.30;95.50;;;12.97;100.00;-21034.69;5035888;28;20429;-70
2021/03/23 10:17:14;;;;;;;1.00;0.90;;;11.40;94.20;;;13.33;100.00;-21044.34;5067831;28;20531;-70
2021/03/23 10:19:48;;;;;;;0.70;0.60;;;11.50;95.30;;;13.84;100.00;-21058.13;5034416;28;20467;-70
2021/03/23 10:22:27;;;;;;;0.70;0.60;;;11.70;96.30;;;14.43;100.00;-21074.09;5035190;28;20494;-70
2021/03/23 10:24:58;;;;;;;0.80;0.70;;;11.80;93.50;;;12.94;100.00;-21033.84;5036692;28;20451;-70
2021/03/23 10:27:30;;;;;;;0.70;0.60;;;11.70;92.40;;;13.82;100.00;-21057.56;5031079;28;20485;-70
2021/03/23 10:30:12;;;;;;;0.80;0.70;;;11.90;93.00;;;14.02;100.00;-21063.06;5025092;28;20963;-70
2021/03/23 10:32:48;;;;;;;1.07;0.97;;;11.90;92.10;;;13.69;100.00;-21054.00;5015989;28;20974;-70
2021/03/23 10:35:26;;;;;;;1.37;0.93;;;12.10;91.70;;;14.86;100.00;-21085.66;5015138;28;20937;-71
2021/03/23 10:38:14;;;;;;;0.70;0.70;;;12.20;93.30;;;13.84;100.00;-21058.13;5015555;28;20528;-70
2021/03/23 10:40:43;;;;;;;0.70;0.60;;;12.30;91.20;;;14.77;100.00;-21083.19;5015655;28;20442;-70
2021/03/23 10:43:26;;;;;;;0.80;0.70;;;11.90;91.00;;;14.57;100.00;-21077.69;5029099;28;20559;-70
2021/03/23 10:45:53;;;;;;;0.70;0.60;;;11.80;91.00;;;14.40;100.00;-21073.13;5034408;28;20754;-70
2021/03/23 10:48:27;;;;;;;1.17;1.07;;;11.90;91.80;;;14.64;100.00;-21079.59;5035032;28;21037;-70
2021/03/23 10:51:15;;;;;;;0.83;0.83;;;11.80;90.90;;;15.17;100.00;-21094.06;5034470;28;20443;-70
2021/03/23 10:53:58;;;;;;;1.53;1.43;;;12.20;90.90;;;14.98;100.00;-21088.97;5034966;28;20940;-70
2021/03/23 10:56:30;;;;;;;0.80;0.80;;;12.40;86.00;;;15.44;100.00;-21101.34;5035152;28;20416;-70
2021/03/23 10:59:11;;;;;;;1.20;1.10;;;12.20;88.30;;;15.29;100.00;-21097.06;5021724;28;20528;-70
2021/03/23 11:01:57;;;;;;;0.80;0.70;;;12.40;88.00;;;16.31;100.00;-21124.56;5046604;28;20417;-70
2021/03/23 11:04:27;;;;;;;0.80;0.80;;;12.80;85.90;;;16.62;100.00;-21132.94;5014559;28;20847;-70
2021/03/23 11:06:55;;;;;;;0.80;0.70;;;13.40;86.10;;;17.10;100.00;-21145.84;5014500;28;20433;-70
2021/03/23 11:09:22;;;;;;;0.80;0.70;;;13.20;80.90;;;16.92;100.00;-21141.03;5015145;28;20457;-70
2021/03/23 11:11:59;;;;;;;0.70;0.60;;;13.10;79.70;;;16.31;100.00;-21124.69;5017327;28;20474;-70
2021/03/23 11:14:26;;;;;;;0.70;0.60;;;13.50;81.50;;;16.48;100.00;-21129.22;5034705;28;20439;-70
2021/03/23 11:16:59;;;;;;;0.80;0.70;;;13.50;77.30;;;16.68;100.00;-21134.59;5033520;28;20429;-70